createdAt,value
2023-05-17T00:01:47.355Z,5.68
2023-05-17T00:04:14.471Z,5.68
2023-05-17T00:06:41.311Z,5.03
2023-05-17T00:09:08.840Z,5.57
2023-05-17T00:11:36.440Z,6.40
2023-05-17T00:14:03.537Z,6.28
2023-05-17T00:16:30.407Z,6.32
2023-05-17T00:18:57.546Z,6.20
2023-05-17T00:21:24.399Z,6.18
2023-05-17T00:23:51.588Z,5.97
2023-05-17T00:26:18.397Z,7.20
2023-05-17T00:28:45.542Z,7.50
2023-05-17T00:31:12.493Z,6.65
2023-05-17T00:33:39.608Z,7.20
2023-05-17T00:36:06.409Z,6.45
2023-05-17T00:38:33.542Z,6.70
2023-05-17T00:41:00.327Z,7.35
2023-05-17T00:43:27.749Z,7.30
2023-05-17T00:45:55.797Z,7.40
2023-05-17T00:48:25.729Z,7.50
2023-05-17T00:50:53.741Z,7.85
2023-05-17T00:53:20.894Z,7.57
2023-05-17T00:55:47.993Z,8.20
2023-05-17T00:58:15.612Z,8.38
2023-05-17T01:00:43.112Z,9.13
2023-05-17T01:03:10.552Z,9.25
2023-05-17T01:05:37.447Z,8.15
2023-05-17T01:08:04.770Z,8.52
2023-05-17T01:10:38.035Z,8.20
2023-05-17T01:13:16.244Z,7.82
2023-05-17T01:15:47.172Z,8.40
2023-05-17T01:20:53.013Z,7.85
2023-05-17T01:23:23.099Z,8.00
2023-05-17T01:26:05.063Z,8.02
2023-05-17T01:28:34.239Z,10.38
2023-05-17T01:31:03.153Z,9.05
2023-05-17T01:33:31.924Z,9.20
2023-05-17T01:35:58.918Z,9.15
2023-05-17T01:38:26.204Z,9.52
2023-05-17T01:41:23.337Z,9.48
2023-05-17T01:44:08.181Z,9.13
2023-05-17T01:46:43.574Z,7.80
2023-05-17T01:49:19.741Z,7.60
2023-05-17T01:51:49.486Z,7.07
2023-05-17T01:54:28.241Z,7.65
2023-05-17T01:57:01.680Z,7.50
2023-05-17T01:59:31.648Z,7.75
2023-05-17T02:02:06.461Z,7.00
2023-05-17T02:04:33.737Z,7.20
2023-05-17T02:07:00.523Z,7.20
2023-05-17T02:09:27.626Z,7.30
2023-05-17T02:11:54.484Z,7.93
2023-05-17T02:14:21.585Z,8.10
2023-05-17T02:16:48.505Z,8.07
2023-05-17T02:19:15.523Z,7.68
2023-05-17T02:21:42.394Z,8.23
2023-05-17T02:24:09.519Z,8.23
2023-05-17T02:26:36.658Z,7.38
2023-05-17T02:29:03.831Z,7.53
2023-05-17T02:31:30.698Z,7.88
2023-05-17T02:33:58.458Z,7.97
2023-05-17T02:36:25.491Z,6.57
2023-05-17T02:38:52.640Z,8.07
2023-05-17T02:41:19.494Z,7.68
2023-05-17T02:43:46.542Z,7.40
2023-05-17T02:46:13.458Z,7.90
2023-05-17T02:48:40.814Z,6.68
2023-05-17T02:51:07.814Z,6.57
2023-05-17T02:53:35.013Z,7.57
2023-05-17T02:56:01.919Z,7.40
2023-05-17T02:58:29.110Z,7.70
2023-05-17T03:00:56.087Z,8.25
2023-05-17T03:03:23.280Z,7.07
2023-05-17T03:05:50.294Z,7.20
2023-05-17T03:08:17.408Z,7.22
2023-05-17T03:10:44.223Z,7.18
2023-05-17T03:13:11.310Z,6.97
2023-05-17T03:15:38.190Z,8.15
2023-05-17T03:18:05.402Z,7.47
2023-05-17T03:20:32.299Z,7.57
2023-05-17T03:22:59.392Z,7.32
2023-05-17T03:25:26.295Z,8.07
2023-05-17T03:27:53.566Z,8.25
2023-05-17T03:30:20.659Z,7.38
2023-05-17T03:32:47.854Z,7.32
2023-05-17T03:35:14.681Z,7.53
2023-05-17T03:37:41.762Z,7.38
2023-05-17T03:40:09.153Z,7.15
2023-05-17T03:42:37.112Z,8.00
2023-05-17T03:45:04.849Z,7.72
2023-05-17T03:47:32.009Z,7.70
2023-05-17T03:49:59.081Z,7.03
2023-05-17T03:52:26.271Z,7.82
2023-05-17T03:54:53.176Z,7.25
2023-05-17T03:57:21.764Z,7.15
2023-05-17T03:59:48.551Z,7.05
2023-05-17T04:02:16.823Z,6.25
2023-05-17T04:04:51.131Z,6.13
2023-05-17T04:07:18.551Z,6.15
2023-05-17T04:09:45.389Z,6.22
2023-05-17T04:12:12.499Z,6.40
2023-05-17T04:14:39.312Z,6.78
2023-05-17T04:17:06.455Z,7.15
2023-05-17T04:19:34.152Z,7.68
2023-05-17T04:22:01.232Z,7.95
2023-05-17T04:24:28.049Z,7.10
2023-05-17T04:26:55.246Z,6.65
2023-05-17T04:29:22.028Z,7.15
2023-05-17T04:31:49.691Z,7.63
2023-05-17T04:34:17.011Z,7.07
2023-05-17T04:36:44.107Z,7.93
2023-05-17T04:39:11.026Z,7.00
2023-05-17T04:41:38.427Z,6.88
2023-05-17T04:44:07.265Z,6.88
2023-05-17T04:46:34.470Z,6.50
2023-05-17T04:49:01.811Z,7.20
2023-05-17T04:51:30.858Z,6.82
2023-05-17T04:54:00.991Z,6.75
2023-05-17T04:56:29.158Z,7.15
2023-05-17T04:58:55.915Z,6.07
2023-05-17T05:01:22.971Z,5.93
2023-05-17T05:03:50.127Z,6.20
2023-05-17T05:06:17.494Z,6.25
2023-05-17T05:08:44.623Z,6.75
2023-05-17T05:11:12.353Z,5.70
2023-05-17T05:13:39.181Z,6.75
2023-05-17T05:16:06.534Z,6.32
2023-05-17T05:18:33.832Z,6.18
2023-05-17T05:21:00.770Z,6.60
2023-05-17T05:23:27.860Z,6.75
2023-05-17T05:25:54.694Z,6.20
2023-05-17T05:28:21.794Z,6.57
2023-05-17T05:30:48.723Z,6.22
2023-05-17T05:33:16.180Z,5.70
2023-05-17T05:35:43.502Z,5.43
2023-05-17T05:38:10.854Z,5.53
2023-05-17T05:40:37.730Z,5.63
2023-05-17T05:43:05.061Z,5.35
2023-05-17T05:45:32.137Z,6.15
2023-05-17T05:47:59.448Z,5.30
2023-05-17T05:50:26.402Z,5.65
2023-05-17T05:53:03.843Z,5.05
2023-05-17T05:55:42.495Z,5.47
2023-05-17T05:58:10.077Z,5.55
2023-05-17T06:00:37.424Z,5.15
2023-05-17T06:03:05.285Z,5.72
2023-05-17T06:05:32.571Z,5.63
2023-05-17T06:07:59.887Z,5.03
2023-05-17T06:10:27.108Z,5.05
2023-05-17T06:12:54.455Z,5.72
2023-05-17T06:15:21.371Z,5.75
2023-05-17T06:17:48.477Z,5.53
2023-05-17T06:20:16.480Z,5.88
2023-05-17T06:22:44.185Z,5.35
2023-05-17T06:25:14.077Z,6.38
2023-05-17T06:27:41.345Z,5.80
2023-05-17T06:30:08.906Z,6.43
2023-05-17T06:32:36.157Z,5.53
2023-05-17T06:35:03.619Z,6.65
2023-05-17T06:37:30.772Z,6.38
2023-05-17T06:40:16.068Z,6.43
2023-05-17T06:42:44.231Z,5.82
2023-05-17T06:45:11.563Z,6.85
2023-05-17T06:47:38.854Z,8.05
2023-05-17T06:50:07.027Z,7.85
2023-05-17T06:52:35.020Z,7.70
2023-05-17T06:55:02.018Z,7.65
2023-05-17T06:57:29.239Z,8.05
2023-05-17T06:59:56.144Z,7.45
2023-05-17T07:02:23.318Z,8.43
2023-05-17T07:04:50.347Z,8.70
2023-05-17T07:07:18.045Z,8.68
2023-05-17T07:09:45.001Z,8.45
2023-05-17T07:12:12.061Z,7.57
2023-05-17T07:14:39.215Z,7.97
2023-05-17T07:17:06.337Z,8.93
2023-05-17T07:19:33.368Z,8.30
2023-05-17T07:22:00.865Z,8.35
2023-05-17T07:24:27.879Z,8.15
2023-05-17T07:26:54.993Z,8.65
2023-05-17T07:29:22.030Z,8.25
2023-05-17T07:31:49.186Z,9.13
2023-05-17T07:34:16.140Z,8.23
2023-05-17T07:36:43.375Z,8.57
2023-05-17T07:39:10.249Z,9.02
2023-05-17T07:41:37.390Z,10.55
2023-05-17T07:44:04.246Z,9.80
2023-05-17T07:46:31.398Z,8.75
2023-05-17T07:49:01.067Z,9.77
2023-05-17T07:51:28.452Z,9.75
2023-05-17T07:53:55.588Z,9.18
2023-05-17T07:56:22.851Z,9.07
2023-05-17T07:58:49.743Z,10.60
2023-05-17T08:01:16.852Z,10.05
2023-05-17T08:03:48.573Z,9.77
2023-05-17T08:06:16.890Z,9.35
2023-05-17T08:08:44.574Z,10.27
2023-05-17T08:11:13.392Z,10.27
2023-05-17T08:13:40.600Z,9.77
2023-05-17T08:16:14.147Z,10.80
2023-05-17T08:18:46.134Z,11.38
2023-05-17T08:21:13.359Z,10.02
2023-05-17T08:23:41.801Z,11.27
2023-05-17T08:26:09.265Z,11.20
2023-05-17T08:28:39.306Z,10.27
2023-05-17T08:31:06.753Z,9.93
2023-05-17T08:33:33.763Z,9.95
2023-05-17T08:36:08.980Z,9.90
2023-05-17T08:38:36.438Z,9.70
2023-05-17T08:41:03.779Z,9.93
2023-05-17T08:43:33.478Z,9.82
2023-05-17T08:46:04.033Z,8.73
2023-05-17T08:48:31.635Z,7.97
2023-05-17T08:51:00.299Z,8.35
2023-05-17T08:53:27.469Z,8.05
2023-05-17T08:56:00.624Z,8.57
2023-05-17T08:58:36.012Z,8.75
2023-05-17T09:01:10.025Z,8.23
2023-05-17T09:03:41.119Z,8.80
2023-05-17T09:08:38.010Z,7.22
2023-05-17T09:11:05.511Z,8.98
2023-05-17T09:13:32.575Z,7.80
2023-05-17T09:16:00.077Z,8.27
2023-05-17T09:18:34.320Z,8.30
2023-05-17T09:21:04.938Z,9.10
2023-05-17T09:23:36.004Z,8.63
2023-05-17T09:28:42.399Z,8.43
2023-05-17T09:31:11.435Z,8.75
2023-05-17T09:33:49.056Z,7.97
2023-05-17T09:36:23.575Z,9.05
2023-05-17T09:38:58.915Z,9.02
2023-05-17T09:41:31.545Z,7.53
2023-05-17T09:44:01.192Z,6.80
2023-05-17T09:46:33.294Z,7.63
2023-05-17T09:49:02.393Z,8.30
2023-05-17T09:51:42.795Z,9.07
2023-05-17T09:54:10.660Z,8.95
2023-05-17T09:56:38.108Z,8.60
2023-05-17T09:59:11.962Z,9.40
2023-05-17T10:01:41.503Z,9.73
2023-05-17T10:04:11.414Z,9.32
2023-05-17T10:09:15.978Z,10.55
2023-05-17T10:11:47.177Z,9.70
2023-05-17T10:14:27.810Z,11.25
2023-05-17T10:16:56.373Z,11.02
2023-05-17T10:19:24.900Z,10.40
2023-05-17T10:21:54.832Z,10.65
2023-05-17T10:24:23.424Z,11.45
2023-05-17T10:26:51.389Z,12.60
2023-05-17T10:29:21.153Z,11.32
2023-05-17T10:31:51.322Z,13.15
2023-05-17T10:34:19.933Z,12.93
2023-05-17T10:36:50.017Z,12.27
2023-05-17T10:39:17.255Z,11.57
2023-05-17T10:41:48.508Z,13.00
2023-05-17T10:44:17.724Z,12.18
2023-05-17T10:46:59.647Z,10.73
2023-05-17T10:49:29.824Z,10.85
2023-05-17T10:52:11.508Z,13.35
2023-05-17T10:54:41.863Z,11.88
2023-05-17T10:57:10.050Z,12.75
2023-05-17T10:59:56.130Z,12.85
2023-05-17T11:02:27.844Z,11.25
2023-05-17T11:04:56.734Z,10.38
2023-05-17T11:07:29.793Z,11.82
2023-05-17T11:10:06.294Z,11.45
2023-05-17T11:12:48.148Z,10.70
2023-05-17T11:15:18.290Z,9.57
2023-05-17T11:17:57.643Z,10.15
2023-05-17T11:20:28.341Z,10.52
2023-05-17T11:23:04.218Z,8.60
2023-05-17T11:25:36.227Z,8.60
2023-05-17T11:28:09.251Z,9.43
2023-05-17T11:30:42.505Z,10.23
2023-05-17T11:33:20.576Z,10.00
2023-05-17T11:35:54.682Z,8.25
2023-05-17T11:38:27.283Z,8.68
2023-05-17T11:40:55.765Z,9.52
2023-05-17T11:43:25.613Z,9.18
2023-05-17T11:45:58.159Z,8.80
2023-05-17T11:48:26.654Z,8.65
2023-05-17T11:50:56.341Z,7.53
2023-05-17T11:53:25.532Z,7.35
2023-05-17T11:55:52.944Z,8.00
2023-05-17T11:58:25.742Z,8.30
2023-05-17T12:00:54.440Z,7.68
2023-05-17T12:03:26.674Z,6.82
2023-05-17T12:06:09.823Z,6.82
2023-05-17T12:08:39.210Z,7.00
2023-05-17T12:11:07.291Z,6.80
2023-05-17T12:13:35.941Z,6.30
2023-05-17T12:16:07.753Z,7.50
2023-05-17T12:18:39.898Z,6.70
2023-05-17T12:21:11.436Z,6.72
2023-05-17T12:23:41.308Z,6.22
2023-05-17T12:26:10.580Z,7.13
2023-05-17T12:28:41.666Z,6.53
2023-05-17T12:31:12.260Z,6.40
2023-05-17T12:33:41.812Z,6.07
2023-05-17T12:36:11.571Z,5.65
2023-05-17T12:38:41.195Z,5.90
2023-05-17T12:41:12.128Z,6.28
2023-05-17T12:46:23.153Z,4.78
2023-05-17T12:48:51.526Z,5.13
2023-05-17T12:51:23.442Z,5.63
2023-05-17T12:53:59.754Z,5.22
2023-05-17T12:56:30.689Z,5.78
2023-05-17T13:01:50.729Z,4.63
2023-05-17T13:04:19.029Z,5.63
2023-05-17T13:06:51.205Z,5.65
2023-05-17T13:09:20.488Z,6.03
2023-05-17T13:11:51.789Z,6.22
2023-05-17T13:14:45.781Z,5.45
2023-05-17T13:17:20.933Z,6.50
2023-05-17T13:19:48.240Z,6.57
2023-05-17T13:22:16.022Z,6.47
2023-05-17T13:24:44.845Z,7.10
2023-05-17T13:27:12.325Z,6.38
2023-05-17T13:29:42.299Z,7.53
2023-05-17T13:32:12.035Z,7.22
2023-05-17T13:34:40.358Z,6.95
2023-05-17T13:37:11.074Z,7.68
2023-05-17T13:39:39.140Z,6.43
2023-05-17T13:42:06.240Z,7.13
2023-05-17T13:44:33.508Z,6.82
2023-05-17T13:47:00.453Z,6.80
2023-05-17T13:49:28.599Z,6.70
2023-05-17T13:51:55.579Z,6.35
2023-05-17T13:54:25.383Z,6.97
2023-05-17T13:56:52.252Z,7.05
2023-05-17T13:59:19.298Z,6.75
2023-05-17T14:01:46.223Z,6.28
2023-05-17T14:04:13.565Z,6.05
2023-05-17T14:06:42.051Z,6.10
2023-05-17T14:09:10.395Z,6.40
2023-05-17T14:11:37.380Z,6.93
2023-05-17T14:14:04.598Z,6.97
2023-05-17T14:16:31.483Z,7.50
2023-05-17T14:19:00.928Z,7.13
2023-05-17T14:21:29.586Z,7.75
2023-05-17T14:23:57.138Z,6.85
2023-05-17T14:26:24.011Z,8.02
2023-05-17T14:28:51.301Z,7.75
2023-05-17T14:31:18.199Z,7.50
2023-05-17T14:33:45.659Z,7.90
2023-05-17T14:36:14.039Z,8.48
2023-05-17T14:38:41.670Z,8.63
2023-05-17T14:41:08.569Z,7.60
2023-05-17T14:43:35.918Z,8.68
2023-05-17T14:46:02.892Z,8.15
2023-05-17T14:48:31.143Z,8.13
2023-05-17T14:50:57.984Z,7.47
2023-05-17T14:53:29.194Z,8.52
2023-05-17T14:55:57.340Z,8.48
2023-05-17T14:58:25.215Z,8.40
2023-05-17T15:01:02.473Z,8.50
2023-05-17T15:03:33.484Z,7.82
2023-05-17T15:06:01.700Z,8.68
2023-05-17T15:08:30.511Z,8.10
2023-05-17T15:10:58.195Z,8.45
2023-05-17T15:13:25.526Z,8.05
2023-05-17T15:15:53.081Z,7.68
2023-05-17T15:18:21.429Z,9.55
2023-05-17T15:20:48.381Z,9.32
2023-05-17T15:23:15.948Z,9.15
2023-05-17T15:25:42.855Z,9.00
2023-05-17T15:28:10.086Z,11.15
2023-05-17T15:30:37.148Z,9.00
2023-05-17T15:33:04.792Z,9.63
2023-05-17T15:35:31.895Z,10.23
2023-05-17T15:38:02.305Z,8.60
2023-05-17T15:40:29.219Z,9.40
2023-05-17T15:42:56.479Z,8.40
2023-05-17T15:45:23.619Z,8.73
2023-05-17T15:47:50.747Z,10.55
2023-05-17T15:50:17.827Z,10.10
2023-05-17T15:52:47.308Z,10.35
2023-05-17T15:55:14.245Z,10.77
2023-05-17T15:57:42.304Z,10.05
2023-05-17T16:00:09.813Z,9.23
2023-05-17T16:02:36.972Z,10.93
2023-05-17T16:05:04.475Z,9.38
2023-05-17T16:07:31.754Z,10.65
2023-05-17T16:09:58.933Z,9.55
2023-05-17T16:12:26.112Z,10.80
2023-05-17T16:14:53.045Z,9.95
2023-05-17T16:17:20.199Z,9.82
2023-05-17T16:19:47.314Z,9.63
2023-05-17T16:22:14.644Z,11.20
2023-05-17T16:24:42.073Z,10.27
2023-05-17T16:27:09.177Z,10.80
2023-05-17T16:29:39.998Z,9.82
2023-05-17T16:32:08.304Z,10.82
2023-05-17T16:34:36.188Z,10.13
2023-05-17T16:37:04.844Z,10.75
2023-05-17T16:39:32.805Z,10.68
2023-05-17T16:42:00.149Z,11.02
2023-05-17T16:44:26.966Z,11.05
2023-05-17T16:46:54.119Z,10.27
2023-05-17T16:49:21.073Z,9.82
2023-05-17T16:51:50.041Z,10.65
2023-05-17T16:54:16.986Z,10.57
2023-05-17T16:56:44.278Z,10.48
2023-05-17T16:59:11.590Z,10.55
2023-05-17T17:01:39.278Z,9.55
2023-05-17T17:04:06.276Z,9.60
2023-05-17T17:06:33.952Z,10.43
2023-05-17T17:09:01.833Z,9.10
2023-05-17T17:11:29.003Z,9.48
2023-05-17T17:13:55.821Z,10.18
2023-05-17T17:16:23.031Z,9.55
2023-05-17T17:18:50.041Z,10.85
2023-05-17T17:21:17.275Z,9.63
2023-05-17T17:23:44.538Z,9.95
2023-05-17T17:26:12.106Z,8.65
2023-05-17T17:28:38.879Z,10.15
2023-05-17T17:31:06.759Z,10.30
2023-05-17T17:33:34.474Z,11.02
2023-05-17T17:36:02.752Z,10.05
2023-05-17T17:38:29.685Z,10.48
2023-05-17T17:40:56.754Z,9.27
2023-05-17T17:43:23.982Z,9.77
2023-05-17T17:45:51.586Z,10.45
2023-05-17T17:48:18.686Z,10.43
2023-05-17T17:50:46.009Z,8.80
2023-05-17T17:53:12.849Z,10.40
2023-05-17T17:55:39.938Z,13.60
2023-05-17T17:58:07.212Z,11.13
2023-05-17T18:00:34.385Z,11.00
2023-05-17T18:03:01.459Z,10.57
2023-05-17T18:05:28.668Z,10.18
2023-05-17T18:07:55.720Z,9.63
2023-05-17T18:10:22.808Z,9.70
2023-05-17T18:12:51.617Z,8.90
2023-05-17T18:15:19.182Z,9.13
2023-05-17T18:17:46.277Z,10.00
2023-05-17T18:20:13.476Z,9.43
2023-05-17T18:22:40.385Z,8.65
2023-05-17T18:25:08.006Z,9.30
2023-05-17T18:27:35.583Z,9.75
2023-05-17T18:30:03.996Z,9.75
2023-05-17T18:32:31.126Z,9.20
2023-05-17T18:34:58.465Z,8.85
2023-05-17T18:37:25.684Z,9.60
2023-05-17T18:39:54.255Z,9.75
2023-05-17T18:42:25.160Z,8.82
2023-05-17T18:44:52.247Z,9.25
2023-05-17T18:47:19.895Z,8.40
2023-05-17T18:49:48.080Z,9.68
2023-05-17T18:52:15.051Z,9.52
2023-05-17T18:54:42.114Z,9.95
2023-05-17T18:57:11.865Z,10.60
2023-05-17T18:59:38.974Z,9.77
2023-05-17T19:02:06.529Z,9.88
2023-05-17T19:04:33.764Z,10.73
2023-05-17T19:07:00.640Z,9.18
2023-05-17T19:09:27.805Z,10.07
2023-05-17T19:11:56.375Z,10.10
2023-05-17T19:14:23.609Z,10.05
2023-05-17T19:16:51.765Z,10.07
2023-05-17T19:19:22.097Z,10.13
2023-05-17T19:21:49.164Z,9.45
2023-05-17T19:24:16.266Z,10.73
2023-05-17T19:26:43.364Z,10.35
2023-05-17T19:29:10.554Z,8.85
2023-05-17T19:31:37.525Z,9.35
2023-05-17T19:34:04.719Z,9.20
2023-05-17T19:36:32.334Z,9.52
2023-05-17T19:38:59.468Z,9.57
2023-05-17T19:41:26.687Z,9.10
2023-05-17T19:43:53.713Z,8.57
2023-05-17T19:46:21.205Z,9.02
2023-05-17T19:48:48.678Z,9.43
2023-05-17T19:51:16.579Z,10.07
2023-05-17T19:53:53.618Z,10.23
2023-05-17T19:58:52.586Z,10.45
2023-05-17T20:01:19.920Z,10.93
2023-05-17T20:03:48.352Z,10.93
2023-05-17T20:06:15.273Z,10.60
2023-05-17T20:08:42.575Z,9.73
2023-05-17T20:11:09.863Z,9.70
2023-05-17T20:13:41.033Z,10.90
2023-05-17T20:16:14.913Z,10.35
2023-05-17T20:18:43.533Z,10.15
2023-05-17T20:21:12.759Z,9.93
2023-05-17T20:23:40.402Z,10.18
2023-05-17T20:26:07.305Z,9.35
2023-05-17T20:28:34.429Z,10.25
2023-05-17T20:31:01.266Z,11.00
2023-05-17T20:33:28.397Z,11.25
2023-05-17T20:35:55.661Z,12.88
2023-05-17T20:38:22.811Z,11.40
2023-05-17T20:40:52.004Z,11.88
2023-05-17T20:43:19.997Z,11.13
2023-05-17T20:45:46.956Z,11.52
2023-05-17T20:48:15.846Z,10.20
2023-05-17T20:50:43.606Z,9.57
2023-05-17T20:53:10.837Z,9.88
2023-05-17T20:55:37.606Z,9.15
2023-05-17T20:58:04.738Z,9.57
2023-05-17T21:00:31.812Z,10.65
2023-05-17T21:02:59.209Z,10.73
2023-05-17T21:05:26.015Z,12.07
2023-05-17T21:07:53.057Z,11.18
2023-05-17T21:10:19.876Z,11.57
2023-05-17T21:12:46.966Z,10.63
2023-05-17T21:15:16.918Z,12.05
2023-05-17T21:17:58.084Z,10.68
2023-05-17T21:23:12.198Z,10.73
2023-05-17T21:25:38.980Z,10.93
2023-05-17T21:28:08.222Z,10.77
2023-05-17T21:30:35.172Z,11.93
2023-05-17T21:33:02.452Z,10.35
2023-05-17T21:35:29.455Z,11.60
2023-05-17T21:37:56.771Z,11.60
2023-05-17T21:40:23.590Z,11.73
2023-05-17T21:42:50.637Z,11.98
2023-05-17T21:45:17.638Z,13.00
2023-05-17T21:47:44.789Z,12.85
2023-05-17T21:50:12.000Z,12.90
2023-05-17T21:52:39.202Z,12.30
2023-05-17T21:55:06.890Z,11.60
2023-05-17T21:57:36.558Z,10.93
2023-05-17T22:00:12.938Z,11.75
2023-05-17T22:02:43.036Z,11.68
2023-05-17T22:05:10.249Z,11.77
2023-05-17T22:07:37.807Z,10.98
2023-05-17T22:10:06.745Z,11.50
2023-05-17T22:12:35.065Z,11.35
2023-05-17T22:15:02.483Z,11.18
2023-05-17T22:17:42.636Z,13.82
2023-05-17T22:20:17.078Z,11.43
2023-05-17T22:22:44.354Z,11.32
2023-05-17T22:25:11.585Z,10.23
2023-05-17T22:27:38.661Z,10.70
2023-05-17T22:30:06.366Z,10.50
2023-05-17T22:32:33.435Z,11.25
2023-05-17T22:35:00.374Z,10.65
2023-05-17T22:37:27.584Z,11.10
2023-05-17T22:39:54.414Z,10.48
2023-05-17T22:42:21.523Z,9.70
2023-05-17T22:44:48.366Z,11.23
2023-05-17T22:47:16.605Z,11.07
2023-05-17T22:49:43.582Z,10.65
2023-05-17T22:52:11.303Z,10.48
2023-05-17T22:54:38.818Z,9.38
2023-05-17T22:57:06.305Z,10.55
2023-05-17T22:59:33.516Z,9.68
2023-05-17T23:02:02.024Z,10.40
2023-05-17T23:04:30.487Z,10.50
2023-05-17T23:07:02.528Z,10.55
2023-05-17T23:09:33.868Z,9.75
2023-05-17T23:12:05.717Z,9.98
2023-05-17T23:14:36.462Z,9.65
2023-05-17T23:17:04.376Z,10.30
2023-05-17T23:19:32.454Z,9.68
2023-05-17T23:22:02.917Z,8.38
2023-05-17T23:24:29.748Z,10.93
2023-05-17T23:26:57.727Z,9.65
2023-05-17T23:29:26.082Z,9.32
2023-05-17T23:31:53.887Z,10.38
2023-05-17T23:34:21.123Z,10.80
2023-05-17T23:36:48.246Z,11.43
2023-05-17T23:39:15.678Z,10.52
2023-05-17T23:41:43.139Z,8.88
2023-05-17T23:44:10.053Z,10.23
2023-05-17T23:46:37.508Z,8.88
2023-05-17T23:49:04.614Z,9.20
2023-05-17T23:51:34.962Z,9.48
2023-05-17T23:54:02.173Z,9.02
2023-05-17T23:56:29.305Z,8.73
2023-05-17T23:58:56.337Z,9.68
